Time;durP1;ratioP1;P1;durP2;ratioP2;P2;SDS_P1;SDS_P2;PMS_P1;PMS_P2;Temp;Humidity;BMP_temperature;BMP_pressure;BME280_temperature;BME280_humidity;BME280_pressure;Samples;Min_cycle;Max_cycle;Signal;HPM_P1;HPM_P2
2022/03/26 00:02:19;;;;;;;86.28;57.15;;;14.90;57.90;;;;;;5098079;28;20047;-71
2022/03/26 00:04:45;;;;;;;85.72;56.63;;;14.90;57.90;;;;;;5098254;28;20071;-70
2022/03/26 00:07:10;;;;;;;89.20;57.17;;;14.90;57.90;;;;;;5098598;28;20040;-71
2022/03/26 00:09:37;;;;;;;90.35;57.88;;;14.90;58.00;;;;;;5098535;28;20055;-71
2022/03/26 00:12:03;;;;;;;86.97;57.08;;;14.90;58.00;;;;;;5098073;28;20079;-71
2022/03/26 00:14:29;;;;;;;89.78;57.95;;;14.90;58.00;;;;;;5097962;28;20098;-72
2022/03/26 00:16:54;;;;;;;83.95;55.83;;;14.90;58.00;;;;;;5098003;28;20052;-71
2022/03/26 00:19:20;;;;;;;84.63;56.60;;;14.80;58.10;;;;;;5097857;28;20040;-71
2022/03/26 00:21:48;;;;;;;91.75;56.47;;;14.80;58.10;;;;;;5098175;28;20105;-72
2022/03/26 00:24:14;;;;;;;91.43;58.08;;;14.80;58.20;;;;;;5098074;28;20127;-72
2022/03/26 00:26:40;;;;;;;85.85;56.60;;;14.80;58.20;;;;;;5097962;28;20132;-72
2022/03/26 00:29:08;;;;;;;90.97;58.08;;;14.80;58.20;;;;;;5097617;28;20359;-72
2022/03/26 00:31:34;;;;;;;92.35;58.88;;;14.80;58.20;;;;;;5097370;28;20119;-71
2022/03/26 00:34:00;;;;;;;85.65;54.45;;;14.70;58.20;;;;;;5097625;28;20079;-71
2022/03/26 00:36:26;;;;;;;86.28;56.95;;;14.70;58.90;;;;;;5098361;28;20040;-71
2022/03/26 00:38:52;;;;;;;86.13;55.70;;;14.70;58.30;;;;;;5097649;28;20040;-72
2022/03/26 00:41:18;;;;;;;89.28;55.95;;;14.70;58.40;;;;;;5097520;28;20051;-72
2022/03/26 00:43:44;;;;;;;88.72;57.35;;;14.70;58.30;;;;;;5080472;28;20127;-73
2022/03/26 00:46:11;;;;;;;95.28;58.80;;;14.70;58.30;;;;;;5097247;28;20083;-72
2022/03/26 00:48:37;;;;;;;85.32;56.08;;;14.70;58.30;;;;;;5097465;28;20375;-72
2022/03/26 00:51:03;;;;;;;93.22;57.35;;;14.70;58.30;;;;;;5097501;28;20052;-71
2022/03/26 00:53:28;;;;;;;89.88;59.38;;;14.70;58.30;;;;;;5098096;28;20041;-71
2022/03/26 00:55:54;;;;;;;92.40;59.00;;;14.70;58.30;;;;;;5097219;28;20051;-72
2022/03/26 00:58:20;;;;;;;88.20;57.22;;;14.70;58.30;;;;;;5097512;28;20343;-72
2022/03/26 01:00:46;;;;;;;84.68;54.28;;;14.70;58.30;;;;;;5096867;28;20379;-70
2022/03/26 01:03:12;;;;;;;93.55;58.47;;;14.70;58.30;;;;;;5097103;28;20043;-71
2022/03/26 01:05:40;;;;;;;91.75;56.38;;;14.60;58.20;;;;;;5097077;28;20505;-71
2022/03/26 01:08:06;;;;;;;90.72;58.05;;;14.60;58.30;;;;;;5097270;28;20048;-71
2022/03/26 01:10:32;;;;;;;91.05;58.70;;;14.60;58.20;;;;;;5097188;28;20101;-72
2022/03/26 01:12:58;;;;;;;91.63;56.55;;;14.60;58.20;;;;;;5097150;28;20044;-71
2022/03/26 01:15:24;;;;;;;93.15;56.60;;;14.60;58.20;;;;;;5097090;28;20048;-72
2022/03/26 01:17:49;;;;;;;86.85;54.72;;;14.60;58.20;;;;;;5097141;28;20048;-71
2022/03/26 01:20:17;;;;;;;88.32;55.75;;;14.60;58.20;;;;;;5096783;28;20055;-71
2022/03/26 01:22:44;;;;;;;89.07;57.40;;;14.60;58.20;;;;;;5097112;28;20056;-71
2022/03/26 01:25:11;;;;;;;89.50;56.67;;;14.60;58.20;;;;;;5062003;28;20040;-71
2022/03/26 01:27:37;;;;;;;88.75;57.00;;;14.60;58.20;;;;;;5096422;28;20039;-71
2022/03/26 01:30:04;;;;;;;91.22;57.70;;;14.50;58.10;;;;;;5097119;28;20113;-71
2022/03/26 01:32:31;;;;;;;93.25;58.92;;;14.50;58.20;;;;;;5096384;28;20466;-71
2022/03/26 01:34:57;;;;;;;90.80;57.33;;;14.50;58.20;;;;;;5096805;28;20044;-72
2022/03/26 01:37:24;;;;;;;91.60;59.80;;;14.50;58.20;;;;;;5096775;28;20451;-70
2022/03/26 01:39:50;;;;;;;92.43;56.65;;;14.50;58.20;;;;;;5095894;28;20367;-71
2022/03/26 01:42:17;;;;;;;88.97;56.40;;;14.50;58.20;;;;;;5097066;28;20044;-72
2022/03/26 01:44:43;;;;;;;88.57;56.90;;;14.50;58.20;;;;;;5096327;28;20048;-71
2022/03/26 01:47:09;;;;;;;92.05;55.72;;;14.50;58.20;;;;;;5078668;28;20052;-71
2022/03/26 01:49:35;;;;;;;93.15;59.15;;;14.50;58.20;;;;;;5096204;28;20461;-70
2022/03/26 01:52:03;;;;;;;92.30;57.25;;;14.50;58.20;;;;;;5096242;28;20044;-71
2022/03/26 01:54:29;;;;;;;95.03;58.50;;;14.40;58.10;;;;;;5096423;28;20052;-72
2022/03/26 01:56:55;;;;;;;93.80;60.35;;;14.50;58.20;;;;;;5096035;28;20043;-72
2022/03/26 01:59:24;;;;;;;98.47;60.88;;;14.40;58.10;;;;;;5078205;28;20112;-72
2022/03/26 02:01:50;;;;;;;94.43;59.92;;;14.40;58.10;;;;;;5095503;28;20068;-71
2022/03/26 02:04:17;;;;;;;95.15;59.00;;;14.40;58.10;;;;;;5096024;28;20465;-73
2022/03/26 02:06:42;;;;;;;94.35;61.25;;;14.40;58.10;;;;;;5096195;28;20048;-72
2022/03/26 02:09:10;;;;;;;98.80;60.47;;;14.40;58.10;;;;;;5095743;28;20503;-71
2022/03/26 02:11:38;;;;;;;99.53;62.72;;;14.40;58.10;;;;;;5095703;28;20197;-71
2022/03/26 02:14:07;;;;;;;100.63;63.85;;;14.40;58.20;;;;;;5096075;28;20363;-71
2022/03/26 02:16:34;;;;;;;98.72;64.03;;;14.40;58.20;;;;;;5095577;28;20140;-71
2022/03/26 02:19:00;;;;;;;105.85;64.88;;;14.30;58.10;;;;;;5096003;28;20498;-71
2022/03/26 02:21:26;;;;;;;102.05;63.45;;;14.40;58.20;;;;;;5095648;28;20079;-72
2022/03/26 02:23:52;;;;;;;96.68;64.25;;;14.30;58.20;;;;;;5095508;28;20048;-71
2022/03/26 02:26:21;;;;;;;105.00;66.53;;;14.30;58.20;;;;;;5095415;28;20047;-71
2022/03/26 02:28:49;;;;;;;104.60;64.57;;;14.30;58.20;;;;;;5095702;28;20059;-71
2022/03/26 02:31:16;;;;;;;102.10;63.47;;;14.30;58.30;;;;;;5095577;28;20052;-70
2022/03/26 02:33:42;;;;;;;105.55;64.40;;;14.30;58.30;;;;;;5095473;28;20043;-72
2022/03/26 02:36:09;;;;;;;101.55;63.83;;;14.30;58.30;;;;;;5095752;28;20412;-72
2022/03/26 02:38:36;;;;;;;103.15;64.32;;;14.30;58.30;;;;;;5095774;28;20098;-71
2022/03/26 02:41:03;;;;;;;96.30;62.50;;;14.30;58.40;;;;;;5077534;28;20056;-71
2022/03/26 02:43:28;;;;;;;103.75;66.45;;;14.20;58.30;;;;;;5077927;28;20116;-71
2022/03/26 02:45:54;;;;;;;103.03;65.10;;;14.20;58.40;;;;;;5096243;28;20039;-71
2022/03/26 02:48:20;;;;;;;105.05;63.80;;;14.20;58.30;;;;;;5077143;28;20062;-70
2022/03/26 02:50:46;;;;;;;98.63;63.75;;;14.20;58.30;;;;;;5095448;28;20044;-71
2022/03/26 02:53:12;;;;;;;104.43;64.53;;;14.20;58.30;;;;;;5095422;28;20157;-71
2022/03/26 02:55:38;;;;;;;96.65;61.30;;;14.20;58.30;;;;;;5095205;28;20215;-71
2022/03/26 02:58:06;;;;;;;91.50;59.67;;;14.20;58.30;;;;;;5094931;28;20054;-71
2022/03/26 03:00:32;;;;;;;101.60;62.65;;;14.20;58.40;;;;;;5077571;28;20048;-71
2022/03/26 03:02:58;;;;;;;93.50;58.33;;;14.20;58.40;;;;;;5095329;28;20052;-70
2022/03/26 03:05:24;;;;;;;93.32;60.28;;;14.20;58.40;;;;;;5094955;28;20091;-72
2022/03/26 03:07:50;;;;;;;91.38;58.63;;;14.20;58.40;;;;;;5094818;28;20325;-71
2022/03/26 03:10:17;;;;;;;93.05;59.33;;;14.20;58.50;;;;;;5094950;28;20051;-70
2022/03/26 03:12:44;;;;;;;93.85;60.53;;;14.20;58.50;;;;;;5095289;28;20096;-71
2022/03/26 03:15:11;;;;;;;95.38;59.25;;;14.10;58.40;;;;;;5077235;28;20407;-71
2022/03/26 03:17:38;;;;;;;93.63;59.25;;;14.20;58.50;;;;;;5091742;28;20369;-72
2022/03/26 03:20:05;;;;;;;93.93;59.50;;;14.10;58.40;;;;;;5078107;28;20519;-72
2022/03/26 03:22:32;;;;;;;92.20;57.85;;;14.10;58.40;;;;;;5094866;28;20355;-70
2022/03/26 03:24:58;;;;;;;89.40;57.83;;;14.10;58.50;;;;;;5094785;28;20469;-71
2022/03/26 03:27:23;;;;;;;95.55;58.55;;;14.10;58.50;;;;;;5094734;28;20052;-71
2022/03/26 03:29:49;;;;;;;94.00;58.03;;;14.10;58.50;;;;;;5095095;28;20040;-71
2022/03/26 03:32:15;;;;;;;89.32;57.58;;;14.10;58.50;;;;;;5095119;28;20051;-71
2022/03/26 03:34:41;;;;;;;92.93;58.45;;;14.00;58.50;;;;;;5094680;28;20052;-71
2022/03/26 03:37:07;;;;;;;89.75;57.60;;;14.00;58.50;;;;;;5094557;28;20131;-70
2022/03/26 03:39:33;;;;;;;90.20;57.10;;;14.00;58.50;;;;;;5095588;28;20120;-72
2022/03/26 03:41:59;;;;;;;89.72;55.60;;;14.00;58.40;;;;;;5076813;28;20464;-71
2022/03/26 03:44:25;;;;;;;89.80;56.55;;;14.00;58.40;;;;;;5077437;28;20044;-71
2022/03/26 03:46:51;;;;;;;89.78;57.20;;;14.00;58.40;;;;;;5094905;28;20036;-71
2022/03/26 03:49:18;;;;;;;88.25;56.40;;;14.00;58.40;;;;;;5095339;28;20052;-71
2022/03/26 03:51:44;;;;;;;90.57;56.80;;;14.00;58.50;;;;;;5094492;28;20056;-70
2022/03/26 03:54:10;;;;;;;93.35;57.45;;;14.00;58.60;;;;;;5094976;28;20347;-71
2022/03/26 03:56:36;;;;;;;90.97;56.53;;;14.00;58.60;;;;;;5094877;28;20066;-70
2022/03/26 03:59:02;;;;;;;87.65;54.38;;;14.00;58.70;;;;;;5095400;28;20051;-72
2022/03/26 04:01:27;;;;;;;88.80;55.65;;;14.00;58.70;;;;;;5093990;28;20439;-71
2022/03/26 04:03:53;;;;;;;83.20;52.72;;;13.90;58.60;;;;;;5096531;28;20047;-71
2022/03/26 04:06:19;;;;;;;91.03;57.47;;;13.90;58.60;;;;;;5098383;28;20044;-72
2022/03/26 04:08:44;;;;;;;85.20;55.58;;;14.00;58.60;;;;;;5098414;28;20044;-72
2022/03/26 04:11:10;;;;;;;88.60;55.35;;;14.00;58.70;;;;;;5098319;28;20079;-71
2022/03/26 04:13:36;;;;;;;86.00;54.60;;;13.90;58.60;;;;;;5098225;28;20040;-70
2022/03/26 04:16:02;;;;;;;88.22;56.15;;;13.90;58.70;;;;;;5080077;28;20036;-71
2022/03/26 04:18:28;;;;;;;87.43;54.95;;;13.90;58.70;;;;;;5080398;28;20427;-70
2022/03/26 04:20:54;;;;;;;87.53;57.92;;;13.90;58.60;;;;;;5080519;28;20052;-71
2022/03/26 04:23:20;;;;;;;87.45;53.95;;;13.90;58.70;;;;;;5098120;28;20040;-71
2022/03/26 04:25:46;;;;;;;85.63;53.78;;;13.90;58.70;;;;;;5098040;28;20051;-71
2022/03/26 04:28:13;;;;;;;86.38;53.25;;;13.90;58.70;;;;;;5097245;28;20473;-71
2022/03/26 04:30:40;;;;;;;87.30;54.72;;;13.90;58.80;;;;;;5097991;28;20070;-71
2022/03/26 04:33:06;;;;;;;85.55;55.83;;;13.90;58.80;;;;;;5097695;28;20058;-70
2022/03/26 04:35:31;;;;;;;85.03;51.95;;;13.90;58.80;;;;;;5097624;28;20048;-72
2022/03/26 04:37:57;;;;;;;88.88;56.00;;;13.90;58.80;;;;;;5098286;28;20485;-72
2022/03/26 04:40:24;;;;;;;83.75;53.65;;;13.80;58.80;;;;;;5079927;28;20044;-71
2022/03/26 04:42:51;;;;;;;85.55;53.70;;;13.90;58.90;;;;;;5097700;28;20131;-73
2022/03/26 04:45:16;;;;;;;81.63;54.22;;;13.80;58.80;;;;;;5097712;28;20055;-72
2022/03/26 04:47:42;;;;;;;86.13;54.53;;;13.80;58.80;;;;;;5097798;28;20056;-71
2022/03/26 04:50:10;;;;;;;81.82;52.70;;;13.80;58.80;;;;;;5079515;28;20514;-70
2022/03/26 04:52:35;;;;;;;80.18;52.00;;;13.80;58.80;;;;;;5097361;28;20048;-71
2022/03/26 04:55:02;;;;;;;81.88;53.13;;;13.80;58.80;;;;;;5097335;28;20047;-73
2022/03/26 04:57:28;;;;;;;84.22;53.45;;;13.80;58.90;;;;;;5097128;28;20052;-71
2022/03/26 04:59:54;;;;;;;79.13;50.65;;;13.70;58.90;;;;;;5097221;28;20059;-72
2022/03/26 05:02:20;;;;;;;78.97;51.40;;;13.70;59.00;;;;;;5097206;28;20399;-72
2022/03/26 05:04:45;;;;;;;81.15;51.47;;;13.70;58.90;;;;;;5097524;28;20082;-72
2022/03/26 05:09:55;;;;;;;80.45;51.55;;;13.70;59.00;;;;;;5097272;28;20396;-72
2022/03/26 05:12:21;;;;;;;82.70;51.35;;;13.70;59.00;;;;;;5097150;28;20090;-71
2022/03/26 05:14:47;;;;;;;79.13;49.30;;;13.70;59.10;;;;;;5097140;28;20136;-71
2022/03/26 05:17:13;;;;;;;80.32;50.00;;;13.70;59.10;;;;;;5063075;28;20116;-72
2022/03/26 05:19:39;;;;;;;78.28;49.85;;;13.70;59.00;;;;;;5096958;28;20052;-71
2022/03/26 05:22:04;;;;;;;78.30;50.78;;;13.70;59.10;;;;;;5096984;28;20130;-71
2022/03/26 05:24:32;;;;;;;74.68;48.35;;;13.70;59.00;;;;;;5079232;28;20056;-71
2022/03/26 05:26:58;;;;;;;80.07;50.35;;;13.70;59.00;;;;;;5094623;28;20116;-77
2022/03/26 05:29:24;;;;;;;77.63;49.10;;;13.70;59.10;;;;;;5075811;28;20123;-76
2022/03/26 05:31:50;;;;;;;83.50;53.15;;;13.70;58.80;;;;;;5068335;28;20044;-76
2022/03/26 05:34:15;;;;;;;83.72;53.88;;;13.70;58.30;;;;;;5081615;28;20040;-77
2022/03/26 05:36:41;;;;;;;81.03;51.63;;;13.70;57.70;;;;;;5086432;28;20429;-79
2022/03/26 05:39:07;;;;;;;86.65;53.38;;;13.70;57.20;;;;;;5063861;28;20049;-76
2022/03/26 05:41:33;;;;;;;91.03;57.22;;;13.80;57.00;;;;;;5096163;28;20101;-75
2022/03/26 05:44:02;;;;;;;81.95;51.53;;;13.80;56.50;;;;;;5096238;28;20075;-79
2022/03/26 05:46:30;;;;;;;85.10;52.58;;;13.70;56.30;;;;;;5096319;28;20105;-77
2022/03/26 05:48:56;;;;;;;80.53;49.10;;;13.70;56.70;;;;;;5061880;28;20073;-78
2022/03/26 05:51:21;;;;;;;84.20;49.97;;;13.70;57.00;;;;;;5096371;28;20074;-77
2022/03/26 05:53:49;;;;;;;84.40;50.33;;;13.70;57.50;;;;;;5096298;28;20435;-76
2022/03/26 05:56:15;;;;;;;81.00;51.53;;;13.70;57.30;;;;;;5074302;28;20055;-75
2022/03/26 05:58:41;;;;;;;84.35;50.60;;;13.70;57.00;;;;;;5066439;28;20102;-71
2022/03/26 06:01:06;;;;;;;82.70;50.20;;;13.80;56.70;;;;;;5095716;28;20056;-78
2022/03/26 06:03:32;;;;;;;88.68;53.53;;;13.80;56.60;;;;;;5078141;28;20077;-73
2022/03/26 06:06:01;;;;;;;88.95;51.88;;;13.80;56.90;;;;;;5096288;28;20116;-75
2022/03/26 06:08:26;;;;;;;83.68;53.97;;;13.70;57.70;;;;;;5078914;28;20059;-75
2022/03/26 06:10:52;;;;;;;84.47;52.85;;;13.70;60.70;;;;;;5095974;28;20048;-75
2022/03/26 06:13:17;;;;;;;80.22;50.13;;;13.80;61.60;;;;;;5077597;28;20043;-76
2022/03/26 06:15:43;;;;;;;81.47;48.40;;;13.80;61.30;;;;;;5095744;28;20071;-73
2022/03/26 06:18:10;;;;;;;74.75;48.55;;;13.90;61.10;;;;;;5095602;28;20044;-77
2022/03/26 06:20:36;;;;;;;77.35;45.10;;;14.20;61.60;;;;;;5078246;28;20058;-74
2022/03/26 06:23:02;;;;;;;79.53;45.63;;;14.30;62.30;;;;;;5078080;28;20070;-74
2022/03/26 06:25:28;;;;;;;70.30;42.13;;;14.60;62.50;;;;;;5078116;28;20048;-74
2022/03/26 06:27:54;;;;;;;63.17;39.35;;;14.80;62.70;;;;;;5095490;28;20040;-75
2022/03/26 06:30:20;;;;;;;62.78;39.15;;;15.00;63.10;;;;;;5095844;28;20079;-76
2022/03/26 06:32:46;;;;;;;63.25;38.72;;;15.10;63.10;;;;;;5074088;28;20048;-80
2022/03/26 06:35:11;;;;;;;64.63;39.20;;;15.30;62.50;;;;;;5075351;28;20044;-74
2022/03/26 06:37:37;;;;;;;60.97;38.13;;;15.30;61.60;;;;;;5075351;28;20056;-72
2022/03/26 06:40:03;;;;;;;59.92;36.03;;;15.40;61.80;;;;;;5057377;28;20052;-74
2022/03/26 06:42:29;;;;;;;60.08;38.25;;;15.40;61.60;;;;;;5075487;28;20095;-76
2022/03/26 06:44:59;;;;;;;57.03;36.15;;;15.30;61.00;;;;;;5057625;28;20080;-75
2022/03/26 06:47:28;;;;;;;57.65;35.28;;;15.50;61.70;;;;;;5057858;28;20064;-75
2022/03/26 06:49:57;;;;;;;53.78;33.55;;;15.60;61.70;;;;;;5083332;28;20056;-75
2022/03/26 06:52:24;;;;;;;58.42;35.03;;;15.50;61.90;;;;;;5077083;28;20498;-75
2022/03/26 06:54:50;;;;;;;53.03;32.30;;;15.50;62.00;;;;;;5094595;28;20079;-78
2022/03/26 06:57:16;;;;;;;56.72;31.45;;;15.60;62.20;;;;;;5095012;28;20115;-75
2022/03/26 06:59:42;;;;;;;51.10;31.80;;;15.70;62.20;;;;;;5095230;28;20467;-75
2022/03/26 07:02:07;;;;;;;52.00;30.63;;;15.80;62.10;;;;;;5077603;28;20044;-77
2022/03/26 07:04:33;;;;;;;53.55;30.77;;;15.90;62.10;;;;;;5077605;28;20520;-76
2022/03/26 07:06:59;;;;;;;47.88;28.20;;;15.90;62.00;;;;;;5095142;28;20039;-73
2022/03/26 07:09:25;;;;;;;40.85;25.65;;;16.00;62.10;;;;;;5091628;28;20569;-73
2022/03/26 07:11:51;;;;;;;40.50;26.65;;;16.10;62.10;;;;;;5095180;28;20046;-75
2022/03/26 07:14:17;;;;;;;39.85;24.75;;;16.20;62.20;;;;;;5077051;28;20044;-74
2022/03/26 07:16:44;;;;;;;42.60;26.83;;;16.30;62.30;;;;;;5094731;28;20048;-73
2022/03/26 07:19:10;;;;;;;42.03;26.58;;;16.40;62.10;;;;;;5060787;28;20067;-76
2022/03/26 07:21:37;;;;;;;38.72;24.33;;;16.40;61.80;;;;;;5075770;28;20048;-74
2022/03/26 07:24:04;;;;;;;41.58;25.42;;;16.60;61.70;;;;;;5094762;28;20374;-75
2022/03/26 07:26:30;;;;;;;45.50;26.27;;;16.60;61.70;;;;;;5094531;28;20116;-73
2022/03/26 07:28:56;;;;;;;36.08;24.40;;;16.60;61.40;;;;;;5073889;28;20052;-73
2022/03/26 07:31:23;;;;;;;38.08;22.42;;;16.70;61.40;;;;;;5089444;28;20058;-76
2022/03/26 07:33:49;;;;;;;44.55;22.67;;;16.70;61.60;;;;;;5094269;28;20051;-74
2022/03/26 07:36:15;;;;;;;39.17;21.92;;;16.70;61.60;;;;;;5093672;28;20044;-74
2022/03/26 07:38:41;;;;;;;32.42;20.23;;;16.70;61.70;;;;;;5096883;28;20079;-75
2022/03/26 07:41:07;;;;;;;38.13;20.33;;;16.80;61.90;;;;;;5098188;28;20036;-74
2022/03/26 07:43:34;;;;;;;45.30;25.00;;;16.90;62.60;;;;;;5077548;28;20132;-74
2022/03/26 07:45:59;;;;;;;41.63;23.67;;;16.90;61.40;;;;;;5085081;28;20127;-72
2022/03/26 07:48:25;;;;;;;40.17;24.95;;;16.60;60.10;;;;;;5081037;28;20438;-75
2022/03/26 07:50:51;;;;;;;41.25;22.20;;;16.70;61.20;;;;;;5080420;28;20131;-74
2022/03/26 07:53:17;;;;;;;37.00;22.40;;;16.70;61.50;;;;;;5063099;28;20406;-74
2022/03/26 07:55:43;;;;;;;40.38;22.60;;;16.80;61.60;;;;;;5076540;28;20056;-73
2022/03/26 07:58:09;;;;;;;38.15;22.05;;;16.80;61.70;;;;;;5068218;28;20052;-76
2022/03/26 08:00:35;;;;;;;39.75;22.80;;;16.80;61.80;;;;;;5093357;28;20058;-73
2022/03/26 08:03:01;;;;;;;36.65;21.35;;;16.80;61.70;;;;;;5096454;28;20131;-73
2022/03/26 08:05:27;;;;;;;38.88;20.95;;;16.80;61.80;;;;;;5096043;28;20438;-74
2022/03/26 08:07:53;;;;;;;35.80;20.95;;;16.80;61.90;;;;;;5097092;28;20475;-74
2022/03/26 08:10:18;;;;;;;40.72;20.88;;;16.90;61.90;;;;;;5097834;28;20135;-74
2022/03/26 08:12:44;;;;;;;38.15;21.10;;;16.90;62.00;;;;;;5080304;28;20127;-74
2022/03/26 08:15:10;;;;;;;32.08;21.05;;;16.90;62.00;;;;;;5080007;28;20051;-73
2022/03/26 08:17:36;;;;;;;36.03;19.90;;;16.90;62.00;;;;;;5080408;28;20048;-74
2022/03/26 08:20:02;;;;;;;28.85;18.00;;;16.80;62.00;;;;;;5079647;28;20135;-77
2022/03/26 08:22:28;;;;;;;33.20;19.88;;;16.90;62.10;;;;;;5091552;28;20379;-78
2022/03/26 08:24:54;;;;;;;40.78;18.38;;;16.90;62.30;;;;;;5076219;28;20475;-76
2022/03/26 08:27:20;;;;;;;38.97;22.13;;;16.90;62.30;;;;;;5084071;28;20075;-74
2022/03/26 08:29:46;;;;;;;48.58;27.00;;;16.90;62.30;;;;;;5097633;28;20032;-76
2022/03/26 08:32:12;;;;;;;40.22;25.30;;;16.90;62.20;;;;;;5094538;28;20103;-73
2022/03/26 08:34:38;;;;;;;47.30;24.50;;;16.90;62.00;;;;;;5079269;28;20205;-72
2022/03/26 08:37:03;;;;;;;43.20;26.25;;;16.90;61.90;;;;;;5080204;28;20193;-76
2022/03/26 08:39:29;;;;;;;48.75;26.30;;;16.90;62.00;;;;;;5092707;28;20044;-70
2022/03/26 08:41:55;;;;;;;37.97;22.02;;;16.80;62.10;;;;;;5096627;28;20481;-73
2022/03/26 08:44:21;;;;;;;43.00;21.98;;;16.80;62.10;;;;;;5079410;28;20062;-76
2022/03/26 08:46:46;;;;;;;35.65;20.98;;;16.80;62.10;;;;;;5079870;28;20054;-76
2022/03/26 08:49:12;;;;;;;38.95;21.42;;;16.80;62.00;;;;;;5078528;28;20052;-74
2022/03/26 08:51:38;;;;;;;44.40;22.17;;;16.80;61.70;;;;;;5079663;28;20052;-75
2022/03/26 08:54:06;;;;;;;38.90;22.27;;;16.80;61.30;;;;;;5097177;28;20463;-77
2022/03/26 08:56:32;;;;;;;42.03;23.33;;;16.90;61.00;;;;;;5063581;28;20064;-79
2022/03/26 08:58:58;;;;;;;43.55;24.88;;;16.90;60.70;;;;;;5094238;28;20036;-73
2022/03/26 09:01:24;;;;;;;36.60;22.88;;;16.90;60.40;;;;;;5079328;28;20051;-76
2022/03/26 09:03:50;;;;;;;33.95;23.08;;;16.90;60.20;;;;;;5096474;28;20047;-78
2022/03/26 09:06:16;;;;;;;37.03;23.77;;;16.90;59.80;;;;;;5091618;28;20035;-76
2022/03/26 09:08:42;;;;;;;37.95;24.75;;;16.80;59.60;;;;;;5086023;28;20439;-74
2022/03/26 09:11:08;;;;;;;44.78;29.27;;;16.80;59.50;;;;;;5076905;28;20052;-74
2022/03/26 09:13:34;;;;;;;50.97;32.20;;;16.80;60.10;;;;;;5085681;28;20475;-74
2022/03/26 09:16:00;;;;;;;61.50;34.90;;;16.80;60.70;;;;;;5079528;28;20047;-76
2022/03/26 09:18:27;;;;;;;49.47;30.35;;;16.80;60.80;;;;;;5079111;28;20127;-74
2022/03/26 09:20:53;;;;;;;43.60;28.48;;;16.80;60.70;;;;;;5097492;28;20047;-73
2022/03/26 09:23:19;;;;;;;41.20;26.10;;;16.70;60.50;;;;;;5096721;28;20101;-75
2022/03/26 09:25:45;;;;;;;38.70;25.15;;;16.70;60.20;;;;;;5096660;28;20048;-73
2022/03/26 09:28:10;;;;;;;38.80;26.05;;;16.70;60.10;;;;;;5096760;28;20048;-74
2022/03/26 09:30:36;;;;;;;38.40;26.77;;;16.70;60.20;;;;;;5096799;28;20044;-73
2022/03/26 09:33:03;;;;;;;38.25;26.05;;;16.70;60.50;;;;;;5097165;28;20050;-74
2022/03/26 09:35:28;;;;;;;45.67;27.95;;;16.70;60.70;;;;;;5095928;28;21239;-74
2022/03/26 09:37:55;;;;;;;32.92;24.73;;;16.70;60.80;;;;;;5096987;28;20044;-74
2022/03/26 09:40:22;;;;;;;42.63;25.02;;;16.70;61.10;;;;;;5096494;28;20040;-76
2022/03/26 09:42:49;;;;;;;33.25;23.88;;;16.70;60.70;;;;;;5096822;28;20142;-75
2022/03/26 09:45:15;;;;;;;33.85;22.02;;;16.70;60.50;;;;;;5078646;28;20051;-75
2022/03/26 09:47:41;;;;;;;35.15;21.67;;;16.70;60.10;;;;;;5078133;28;20087;-75
2022/03/26 09:50:09;;;;;;;34.00;21.40;;;16.70;60.10;;;;;;5095732;28;20105;-73
2022/03/26 09:52:36;;;;;;;31.27;20.10;;;16.70;60.20;;;;;;5073728;28;20451;-73
2022/03/26 09:55:03;;;;;;;28.67;19.38;;;16.70;60.30;;;;;;5078089;28;20044;-74
2022/03/26 09:57:30;;;;;;;28.45;19.13;;;16.70;60.40;;;;;;5096138;28;20105;-73
2022/03/26 09:59:57;;;;;;;26.00;17.35;;;16.70;60.50;;;;;;5095833;28;20056;-74
2022/03/26 10:02:23;;;;;;;24.27;17.63;;;16.70;60.50;;;;;;5095159;28;20044;-74
2022/03/26 10:04:49;;;;;;;26.73;18.42;;;16.70;60.60;;;;;;5096321;28;20135;-73
2022/03/26 10:07:15;;;;;;;23.73;16.65;;;16.70;60.70;;;;;;5095005;28;20418;-70
2022/03/26 10:09:47;;;;;;;29.92;17.23;;;16.70;60.60;;;;;;5095218;28;20083;-72
2022/03/26 10:12:18;;;;;;;27.58;16.08;;;16.70;60.70;;;;;;5085989;28;20066;-72
2022/03/26 10:14:48;;;;;;;23.30;14.77;;;16.60;60.90;;;;;;5095527;28;20044;-76
2022/03/26 10:17:15;;;;;;;24.65;15.40;;;16.60;61.20;;;;;;5074636;28;20447;-75
2022/03/26 10:19:52;;;;;;;27.58;14.55;;;16.60;61.30;;;;;;5074451;28;20079;-74
2022/03/26 10:22:48;;;;;;;25.00;14.32;;;16.50;61.60;;;;;;5075426;28;20063;-72
2022/03/26 10:25:22;;;;;;;25.67;13.43;;;16.50;62.20;;;;;;5074270;28;20515;-72
2022/03/26 10:27:52;;;;;;;29.65;13.23;;;16.60;62.40;;;;;;5076238;28;20055;-73
2022/03/26 10:32:38;;;;;;;25.17;12.27;;;16.60;62.30;;;;;;5095933;28;20413;-73
2022/03/26 10:33:19;;;;;;;22.85;12.73;;;16.60;62.30;;;;;;5095986;28;20065;-73
2022/03/26 10:35:53;;;;;;;22.13;12.20;;;16.60;62.20;;;;;;5095371;28;20470;-72
2022/03/26 10:38:19;;;;;;;22.02;12.30;;;16.60;62.20;;;;;;5078414;28;20059;-73
2022/03/26 10:40:44;;;;;;;19.85;11.82;;;16.60;62.20;;;;;;5077813;28;20048;-72
2022/03/26 10:43:14;;;;;;;17.85;10.45;;;16.60;62.20;;;;;;5095535;28;20040;-73
2022/03/26 10:45:51;;;;;;;18.33;11.82;;;16.60;62.20;;;;;;5095556;28;20047;-74
2022/03/26 10:48:24;;;;;;;18.75;11.50;;;16.60;62.10;;;;;;5095002;28;20065;-73
2022/03/26 10:50:55;;;;;;;20.27;10.45;;;16.60;62.10;;;;;;5095000;28;20062;-72
2022/03/26 10:53:21;;;;;;;24.27;10.88;;;16.60;62.10;;;;;;5092121;28;20048;-73
2022/03/26 10:55:48;;;;;;;15.50;9.38;;;16.60;62.00;;;;;;5095446;28;20109;-73
2022/03/26 10:58:15;;;;;;;15.18;9.25;;;16.60;62.00;;;;;;5095466;28;20071;-72
2022/03/26 11:00:43;;;;;;;16.23;9.32;;;16.70;62.00;;;;;;5094879;28;20054;-72
2022/03/26 11:03:09;;;;;;;14.80;9.07;;;16.60;61.90;;;;;;5095058;28;20055;-72
2022/03/26 11:05:36;;;;;;;12.77;8.65;;;16.60;61.90;;;;;;5077759;28;20466;-72
2022/03/26 11:08:03;;;;;;;16.40;8.25;;;16.60;61.80;;;;;;5095554;28;20394;-73
2022/03/26 11:10:30;;;;;;;14.07;8.93;;;16.60;61.80;;;;;;5094979;28;20482;-72
2022/03/26 11:12:59;;;;;;;12.85;7.82;;;16.60;61.70;;;;;;5097448;28;20127;-74
2022/03/26 11:15:33;;;;;;;11.57;7.10;;;16.60;61.70;;;;;;5095649;28;20048;-72
2022/03/26 11:18:18;;;;;;;11.85;7.53;;;16.60;61.60;;;;;;5099129;28;20145;-71
2022/03/26 11:21:09;;;;;;;12.23;7.97;;;16.60;61.60;;;;;;5077736;28;20053;-72
2022/03/26 11:23:46;;;;;;;12.30;7.03;;;16.60;61.60;;;;;;5078750;28;20044;-73
2022/03/26 11:26:27;;;;;;;11.32;7.05;;;16.60;61.60;;;;;;5079338;28;20405;-73
2022/03/26 11:29:02;;;;;;;11.55;6.32;;;16.60;61.50;;;;;;5026467;28;20201;-73
2022/03/26 11:31:31;;;;;;;9.40;6.55;;;16.60;61.50;;;;;;5089206;28;20059;-73
2022/03/26 11:34:05;;;;;;;9.48;6.03;;;16.60;61.50;;;;;;5099254;28;20040;-72
2022/03/26 11:36:31;;;;;;;8.27;5.55;;;16.60;61.40;;;;;;5098622;28;20040;-73
2022/03/26 11:39:10;;;;;;;9.40;5.85;;;16.60;61.40;;;;;;5098594;28;20052;-73
2022/03/26 11:41:36;;;;;;;7.90;5.70;;;16.60;61.40;;;;;;5098676;28;20044;-72
2022/03/26 11:44:03;;;;;;;9.98;5.82;;;16.50;61.30;;;;;;5098885;28;20040;-73
2022/03/26 11:52:28;;;;;;;5.88;4.68;;;16.50;61.20;;;;;;5080752;28;20087;-73
2022/03/26 11:55:15;;;;;;;8.23;5.45;;;16.50;61.20;;;;;;5098638;28;20044;-73
2022/03/26 11:57:41;;;;;;;7.97;5.22;;;16.50;61.20;;;;;;5067250;28;20047;-74
2022/03/26 12:00:17;;;;;;;7.20;4.68;;;16.50;61.30;;;;;;5081029;28;20054;-72
2022/03/26 12:02:51;;;;;;;7.35;4.70;;;16.50;61.30;;;;;;5095560;28;20087;-73
2022/03/26 12:08:19;;;;;;;7.13;4.32;;;16.50;61.20;;;;;;5097920;28;20467;-73
2022/03/26 12:10:45;;;;;;;6.78;4.65;;;16.50;61.20;;;;;;5098461;28;20052;-72
2022/03/26 12:13:22;;;;;;;6.55;4.30;;;16.50;61.20;;;;;;5097552;28;20067;-73
2022/03/26 12:16:17;;;;;;;8.25;4.50;;;16.40;61.10;;;;;;5080356;28;20056;-73
2022/03/26 12:18:44;;;;;;;7.43;4.93;;;16.40;61.20;;;;;;5080718;28;20099;-73
2022/03/26 12:21:21;;;;;;;6.63;4.00;;;16.40;61.10;;;;;;5098247;28;20052;-73
2022/03/26 12:23:47;;;;;;;6.68;4.03;;;16.40;61.10;;;;;;5096937;28;20040;-74
2022/03/26 12:26:13;;;;;;;6.45;4.18;;;16.40;61.10;;;;;;5098130;28;20044;-73
2022/03/26 12:28:43;;;;;;;6.35;3.95;;;16.40;61.20;;;;;;5098186;28;20069;-73
2022/03/26 12:31:10;;;;;;;5.03;4.40;;;16.40;61.20;;;;;;5097728;28;20063;-72
2022/03/26 12:33:46;;;;;;;7.90;4.20;;;16.40;61.20;;;;;;5097717;28;20044;-73
2022/03/26 12:36:15;;;;;;;5.00;3.95;;;16.40;61.20;;;;;;5097922;28;20044;-72
2022/03/26 12:38:46;;;;;;;5.43;3.55;;;16.40;61.20;;;;;;5098492;28;20157;-74
2022/03/26 12:41:13;;;;;;;4.57;3.28;;;16.40;61.20;;;;;;5097475;28;20090;-73